sensor_id;sensor_type;location;lat;lon;timestamp;pressure;altitude;pressure_sealevel;temperature;humidity
34241;BME280;20503;50.200;19.508;2023-05-23T00:02:22;101156.69;;;15.03;64.72
34241;BME280;20503;50.200;19.508;2023-05-23T00:07:30;101153.78;;;14.98;65.02
34241;BME280;20503;50.200;19.508;2023-05-23T00:12:38;101131.79;;;14.91;65.09
34241;BME280;20503;50.200;19.508;2023-05-23T00:17:46;101135.84;;;14.89;65.29
34241;BME280;20503;50.200;19.508;2023-05-23T00:22:55;101127.17;;;14.67;66.24
34241;BME280;20503;50.200;19.508;2023-05-23T00:28:03;101129.28;;;14.65;66.23
34241;BME280;20503;50.200;19.508;2023-05-23T00:33:10;101126.86;;;14.75;65.58
34241;BME280;20503;50.200;19.508;2023-05-23T00:38:18;101124.32;;;14.74;65.54
34241;BME280;20503;50.200;19.508;2023-05-23T00:43:26;101127.59;;;14.64;65.68
34241;BME280;20503;50.200;19.508;2023-05-23T00:48:34;101115.50;;;14.65;65.59
34241;BME280;20503;50.200;19.508;2023-05-23T00:53:42;101124.32;;;14.74;65.16
34241;BME280;20503;50.200;19.508;2023-05-23T00:58:50;101122.27;;;14.69;65.25
34241;BME280;20503;50.200;19.508;2023-05-23T01:03:57;101104.05;;;14.68;65.34
34241;BME280;20503;50.200;19.508;2023-05-23T01:09:05;101100.52;;;14.79;64.74
34241;BME280;20503;50.200;19.508;2023-05-23T01:14:18;101095.88;;;14.80;64.65
34241;BME280;20503;50.200;19.508;2023-05-23T01:29:56;101092.17;;;14.68;64.89
34241;BME280;20503;50.200;19.508;2023-05-23T01:34:58;101072.34;;;14.59;65.50
34241;BME280;20503;50.200;19.508;2023-05-23T01:40:00;101086.63;;;14.50;66.04
34241;BME280;20503;50.200;19.508;2023-05-23T01:45:02;101077.75;;;14.48;65.88
34241;BME280;20503;50.200;19.508;2023-05-23T01:50:11;101083.78;;;14.38;66.27
34241;BME280;20503;50.200;19.508;2023-05-23T01:55:20;101068.78;;;14.34;66.54
34241;BME280;20503;50.200;19.508;2023-05-23T02:00:26;101080.46;;;14.30;66.87
34241;BME280;20503;50.200;19.508;2023-05-23T02:05:34;101082.41;;;14.23;67.01
34241;BME280;20503;50.200;19.508;2023-05-23T02:10:42;101080.37;;;14.18;67.40
34241;BME280;20503;50.200;19.508;2023-05-23T02:15:50;101073.16;;;14.17;67.37
34241;BME280;20503;50.200;19.508;2023-05-23T02:20:58;101075.38;;;14.02;68.23
34241;BME280;20503;50.200;19.508;2023-05-23T02:26:06;101079.24;;;13.95;68.37
34241;BME280;20503;50.200;19.508;2023-05-23T02:31:14;101079.28;;;13.88;69.04
34241;BME280;20503;50.200;19.508;2023-05-23T02:36:22;101086.56;;;13.76;69.45
34241;BME280;20503;50.200;19.508;2023-05-23T02:41:31;101083.30;;;13.55;71.07
34241;BME280;20503;50.200;19.508;2023-05-23T02:46:38;101077.68;;;13.37;72.42
34241;BME280;20503;50.200;19.508;2023-05-23T02:51:47;101075.55;;;12.95;75.20
34241;BME280;20503;50.200;19.508;2023-05-23T02:56:55;101081.48;;;12.86;75.77
34241;BME280;20503;50.200;19.508;2023-05-23T03:02:03;101079.12;;;13.02;74.83
34241;BME280;20503;50.200;19.508;2023-05-23T03:07:11;101068.89;;;13.15;74.16
34241;BME280;20503;50.200;19.508;2023-05-23T03:12:20;101062.70;;;13.33;73.44
34241;BME280;20503;50.200;19.508;2023-05-23T03:17:28;101062.22;;;13.42;72.99
34241;BME280;20503;50.200;19.508;2023-05-23T03:22:35;101060.64;;;13.59;72.14
34241;BME280;20503;50.200;19.508;2023-05-23T03:27:43;101063.76;;;13.69;71.67
34241;BME280;20503;50.200;19.508;2023-05-23T03:32:51;101065.78;;;13.80;71.65
34241;BME280;20503;50.200;19.508;2023-05-23T03:37:59;101059.95;;;13.70;73.27
34241;BME280;20503;50.200;19.508;2023-05-23T03:43:07;101068.62;;;13.36;76.10
34241;BME280;20503;50.200;19.508;2023-05-23T03:48:15;101069.32;;;13.19;76.95
34241;BME280;20503;50.200;19.508;2023-05-23T03:53:23;101074.22;;;13.11;78.26
34241;BME280;20503;50.200;19.508;2023-05-23T03:58:30;101057.88;;;13.22;78.75
34241;BME280;20503;50.200;19.508;2023-05-23T04:03:38;101071.47;;;13.54;74.93
34241;BME280;20503;50.200;19.508;2023-05-23T04:08:46;101076.74;;;13.87;72.59
34241;BME280;20503;50.200;19.508;2023-05-23T04:13:54;101061.40;;;14.28;72.27
34241;BME280;20503;50.200;19.508;2023-05-23T04:19:02;101057.09;;;14.57;73.06
34241;BME280;20503;50.200;19.508;2023-05-23T04:24:10;101054.98;;;15.12;69.93
34241;BME280;20503;50.200;19.508;2023-05-23T04:29:18;101064.61;;;16.10;64.51
34241;BME280;20503;50.200;19.508;2023-05-23T04:34:25;101059.51;;;16.36;63.39
34241;BME280;20503;50.200;19.508;2023-05-23T04:39:33;101062.15;;;16.54;62.09
34241;BME280;20503;50.200;19.508;2023-05-23T04:44:41;101047.75;;;17.26;61.14
34241;BME280;20503;50.200;19.508;2023-05-23T04:49:49;101059.44;;;18.28;59.23
34241;BME280;20503;50.200;19.508;2023-05-23T04:54:56;101061.52;;;18.21;57.68
34241;BME280;20503;50.200;19.508;2023-05-23T05:00:05;101060.90;;;18.47;57.78
34241;BME280;20503;50.200;19.508;2023-05-23T05:05:12;101054.55;;;18.68;56.58
34241;BME280;20503;50.200;19.508;2023-05-23T05:10:19;101052.37;;;19.51;55.49
34241;BME280;20503;50.200;19.508;2023-05-23T05:15:27;101052.38;;;19.77;54.39
34241;BME280;20503;50.200;19.508;2023-05-23T05:20:34;101053.30;;;20.09;52.96
34241;BME280;20503;50.200;19.508;2023-05-23T05:25:42;101055.90;;;20.21;52.21
34241;BME280;20503;50.200;19.508;2023-05-23T05:30:49;101048.45;;;20.26;52.38
34241;BME280;20503;50.200;19.508;2023-05-23T05:35:57;101053.98;;;21.50;49.42
34241;BME280;20503;50.200;19.508;2023-05-23T05:41:04;101058.59;;;22.06;47.57
34241;BME280;20503;50.200;19.508;2023-05-23T05:46:12;101064.70;;;21.83;47.64
34241;BME280;20503;50.200;19.508;2023-05-23T05:51:19;101077.56;;;21.99;47.67
34241;BME280;20503;50.200;19.508;2023-05-23T05:56:27;101069.53;;;22.73;46.08
34241;BME280;20503;50.200;19.508;2023-05-23T06:01:35;101067.13;;;23.49;44.62
34241;BME280;20503;50.200;19.508;2023-05-23T06:06:44;101056.88;;;23.20;43.66
34241;BME280;20503;50.200;19.508;2023-05-23T06:11:52;101050.66;;;23.38;43.60
34241;BME280;20503;50.200;19.508;2023-05-23T06:17:01;101059.37;;;24.28;41.76
34241;BME280;20503;50.200;19.508;2023-05-23T06:22:08;101055.17;;;25.21;40.28
34241;BME280;20503;50.200;19.508;2023-05-23T06:27:17;101052.24;;;26.15;39.00
34241;BME280;20503;50.200;19.508;2023-05-23T06:32:24;101041.23;;;24.59;40.63
34241;BME280;20503;50.200;19.508;2023-05-23T06:37:32;101045.77;;;26.14;38.90
34241;BME280;20503;50.200;19.508;2023-05-23T06:42:40;101041.33;;;25.95;37.24
34241;BME280;20503;50.200;19.508;2023-05-23T06:47:48;101043.71;;;27.02;36.05
34241;BME280;20503;50.200;19.508;2023-05-23T06:52:56;101035.09;;;27.79;36.03
34241;BME280;20503;50.200;19.508;2023-05-23T06:58:03;101047.18;;;28.51;33.53
34241;BME280;20503;50.200;19.508;2023-05-23T07:03:11;101042.11;;;28.04;34.08
34241;BME280;20503;50.200;19.508;2023-05-23T07:08:19;101025.91;;;27.47;35.28
34241;BME280;20503;50.200;19.508;2023-05-23T07:13:27;101035.17;;;28.67;35.03
34241;BME280;20503;50.200;19.508;2023-05-23T07:18:35;101041.45;;;29.47;32.35
34241;BME280;20503;50.200;19.508;2023-05-23T07:23:42;101031.77;;;27.37;35.92
34241;BME280;20503;50.200;19.508;2023-05-23T07:28:50;101036.03;;;29.67;32.25
34241;BME280;20503;50.200;19.508;2023-05-23T07:33:58;101026.98;;;30.21;31.57
34241;BME280;20503;50.200;19.508;2023-05-23T07:39:06;101034.52;;;31.06;29.99
34241;BME280;20503;50.200;19.508;2023-05-23T07:44:13;101019.95;;;28.99;33.14
34241;BME280;20503;50.200;19.508;2023-05-23T07:49:21;101025.80;;;30.05;32.17
34241;BME280;20503;50.200;19.508;2023-05-23T07:54:29;101023.06;;;29.58;33.08
34241;BME280;20503;50.200;19.508;2023-05-23T07:59:37;101017.96;;;29.38;33.25
34241;BME280;20503;50.200;19.508;2023-05-23T08:04:45;101016.60;;;28.66;33.85
34241;BME280;20503;50.200;19.508;2023-05-23T08:09:52;101015.49;;;30.35;32.41
34241;BME280;20503;50.200;19.508;2023-05-23T08:14:59;101015.42;;;29.20;32.15
34241;BME280;20503;50.200;19.508;2023-05-23T08:20:08;101018.48;;;29.01;32.57
34241;BME280;20503;50.200;19.508;2023-05-23T08:25:15;101013.45;;;28.24;34.55
34241;BME280;20503;50.200;19.508;2023-05-23T08:30:24;101003.35;;;28.67;34.61
34241;BME280;20503;50.200;19.508;2023-05-23T08:35:32;101004.77;;;28.56;39.51
34241;BME280;20503;50.200;19.508;2023-05-23T08:40:38;101001.94;;;29.08;36.33
34241;BME280;20503;50.200;19.508;2023-05-23T08:45:48;101006.04;;;28.50;35.85
34241;BME280;20503;50.200;19.508;2023-05-23T08:50:54;101007.15;;;29.79;34.56
34241;BME280;20503;50.200;19.508;2023-05-23T08:56:02;101002.34;;;28.41;35.72
34241;BME280;20503;50.200;19.508;2023-05-23T09:01:09;100994.38;;;28.21;35.85
34241;BME280;20503;50.200;19.508;2023-05-23T09:06:20;101003.00;;;28.24;36.14
34241;BME280;20503;50.200;19.508;2023-05-23T09:11:25;100992.73;;;28.42;36.38
34241;BME280;20503;50.200;19.508;2023-05-23T09:16:34;100989.86;;;28.33;35.83
34241;BME280;20503;50.200;19.508;2023-05-23T09:21:44;100987.44;;;24.86;42.55
34241;BME280;20503;50.200;19.508;2023-05-23T09:26:48;100983.15;;;25.16;44.79
34241;BME280;20503;50.200;19.508;2023-05-23T09:37:12;100967.59;;;24.25;45.55
34241;BME280;20503;50.200;19.508;2023-05-23T09:42:22;100963.12;;;24.58;45.15
34241;BME280;20503;50.200;19.508;2023-05-23T09:47:23;100954.84;;;24.95;43.94
34241;BME280;20503;50.200;19.508;2023-05-23T09:52:35;100970.80;;;24.42;44.81
34241;BME280;20503;50.200;19.508;2023-05-23T09:57:40;100958.68;;;24.80;41.02
34241;BME280;20503;50.200;19.508;2023-05-23T10:08:00;100953.20;;;25.35;40.60
34241;BME280;20503;50.200;19.508;2023-05-23T10:13:04;100949.18;;;24.48;43.29
34241;BME280;20503;50.200;19.508;2023-05-23T10:23:22;100946.09;;;25.01;42.99
34241;BME280;20503;50.200;19.508;2023-05-23T10:28:24;100952.74;;;24.58;43.45
34241;BME280;20503;50.200;19.508;2023-05-23T10:33:36;100950.78;;;24.59;44.78
34241;BME280;20503;50.200;19.508;2023-05-23T10:49:07;100936.89;;;24.96;44.39
34241;BME280;20503;50.200;19.508;2023-05-23T10:54:11;100934.21;;;24.86;46.18
34241;BME280;20503;50.200;19.508;2023-05-23T10:59:19;100936.80;;;24.25;46.25
34241;BME280;20503;50.200;19.508;2023-05-23T11:04:29;100919.49;;;24.75;44.28
34241;BME280;20503;50.200;19.508;2023-05-23T11:09:31;100927.08;;;24.18;44.08
34241;BME280;20503;50.200;19.508;2023-05-23T11:24:58;100902.09;;;23.98;43.98
34241;BME280;20503;50.200;19.508;2023-05-23T11:30:03;100903.83;;;24.74;42.83
34241;BME280;20503;50.200;19.508;2023-05-23T11:35:07;100909.49;;;24.93;42.54
34241;BME280;20503;50.200;19.508;2023-05-23T11:45:22;100896.25;;;25.16;42.92
34241;BME280;20503;50.200;19.508;2023-05-23T11:50:23;100895.61;;;24.02;44.27
34241;BME280;20503;50.200;19.508;2023-05-23T11:55:31;100883.55;;;24.07;45.45
34241;BME280;20503;50.200;19.508;2023-05-23T12:00:44;100884.35;;;25.98;43.10
34241;BME280;20503;50.200;19.508;2023-05-23T12:05:46;100894.69;;;26.16;41.40
34241;BME280;20503;50.200;19.508;2023-05-23T12:10:58;100892.84;;;25.75;41.97
34241;BME280;20503;50.200;19.508;2023-05-23T12:16:02;100898.37;;;25.48;41.42
34241;BME280;20503;50.200;19.508;2023-05-23T12:21:08;100890.41;;;24.71;42.37
34241;BME280;20503;50.200;19.508;2023-05-23T12:26:15;100879.79;;;24.92;44.01
34241;BME280;20503;50.200;19.508;2023-05-23T12:31:24;100874.40;;;24.95;44.03
34241;BME280;20503;50.200;19.508;2023-05-23T12:36:30;100861.52;;;24.76;42.55
34241;BME280;20503;50.200;19.508;2023-05-23T12:41:40;100874.49;;;25.32;43.28
34241;BME280;20503;50.200;19.508;2023-05-23T12:46:45;100868.29;;;24.70;43.71
34241;BME280;20503;50.200;19.508;2023-05-23T12:51:52;100877.21;;;24.25;44.21
34241;BME280;20503;50.200;19.508;2023-05-23T12:56:59;100872.04;;;24.84;45.32
34241;BME280;20503;50.200;19.508;2023-05-23T13:02:07;100866.11;;;25.08;44.17
34241;BME280;20503;50.200;19.508;2023-05-23T13:07:14;100857.88;;;24.52;43.50
34241;BME280;20503;50.200;19.508;2023-05-23T13:12:23;100859.69;;;24.38;44.99
34241;BME280;20503;50.200;19.508;2023-05-23T13:17:29;100843.45;;;25.05;44.36
34241;BME280;20503;50.200;19.508;2023-05-23T13:22:37;100846.64;;;25.17;44.25
34241;BME280;20503;50.200;19.508;2023-05-23T13:27:44;100855.92;;;24.00;44.00
34241;BME280;20503;50.200;19.508;2023-05-23T13:32:52;100868.99;;;24.05;43.38
34241;BME280;20503;50.200;19.508;2023-05-23T13:37:59;100892.80;;;24.59;43.81
34241;BME280;20503;50.200;19.508;2023-05-23T13:43:06;100909.95;;;23.96;48.71
34241;BME280;20503;50.200;19.508;2023-05-23T13:48:14;100918.24;;;22.66;54.64
34241;BME280;20503;50.200;19.508;2023-05-23T13:53:21;100918.04;;;21.97;67.00
34241;BME280;20503;50.200;19.508;2023-05-23T13:58:29;100921.38;;;20.27;83.52
34241;BME280;20503;50.200;19.508;2023-05-23T14:03:36;100919.77;;;20.41;79.81
34241;BME280;20503;50.200;19.508;2023-05-23T14:08:44;100920.63;;;20.41;75.60
34241;BME280;20503;50.200;19.508;2023-05-23T14:13:52;100938.84;;;20.64;77.76
34241;BME280;20503;50.200;19.508;2023-05-23T14:19:00;100937.63;;;20.45;78.79
34241;BME280;20503;50.200;19.508;2023-05-23T14:24:07;100932.59;;;19.74;100.00
34241;BME280;20503;50.200;19.508;2023-05-23T14:29:15;100934.23;;;19.70;99.68
34241;BME280;20503;50.200;19.508;2023-05-23T14:34:23;100924.88;;;20.12;100.00
34241;BME280;20503;50.200;19.508;2023-05-23T14:39:31;100930.41;;;20.07;98.37
34241;BME280;20503;50.200;19.508;2023-05-23T14:44:38;100920.65;;;20.46;87.17
34241;BME280;20503;50.200;19.508;2023-05-23T14:49:46;100923.49;;;21.12;81.11
34241;BME280;20503;50.200;19.508;2023-05-23T14:54:54;100919.70;;;20.82;83.48
34241;BME280;20503;50.200;19.508;2023-05-23T15:00:02;100916.45;;;20.85;80.14
34241;BME280;20503;50.200;19.508;2023-05-23T15:05:10;100905.17;;;21.51;75.98
34241;BME280;20503;50.200;19.508;2023-05-23T15:10:18;100909.12;;;22.00;67.79
34241;BME280;20503;50.200;19.508;2023-05-23T15:15:25;100906.91;;;21.82;66.29
34241;BME280;20503;50.200;19.508;2023-05-23T15:20:37;100897.95;;;22.05;66.36
34241;BME280;20503;50.200;19.508;2023-05-23T15:25:41;100908.00;;;22.11;65.35
34241;BME280;20503;50.200;19.508;2023-05-23T15:30:48;100897.95;;;22.05;66.31
34241;BME280;20503;50.200;19.508;2023-05-23T15:35:57;100889.58;;;22.15;70.65
34241;BME280;20503;50.200;19.508;2023-05-23T15:41:04;100894.32;;;22.10;72.36
34241;BME280;20503;50.200;19.508;2023-05-23T15:46:11;100882.05;;;22.16;71.32
34241;BME280;20503;50.200;19.508;2023-05-23T15:51:19;100878.46;;;21.95;72.90
34241;BME280;20503;50.200;19.508;2023-05-23T15:56:27;100872.05;;;21.90;76.69
34241;BME280;20503;50.200;19.508;2023-05-23T16:01:35;100874.57;;;21.76;77.13
34241;BME280;20503;50.200;19.508;2023-05-23T16:06:42;100868.91;;;21.16;80.91
34241;BME280;20503;50.200;19.508;2023-05-23T16:11:51;100871.61;;;20.87;81.34
34241;BME280;20503;50.200;19.508;2023-05-23T16:16:58;100871.13;;;20.48;79.77
34241;BME280;20503;50.200;19.508;2023-05-23T16:22:06;100861.98;;;20.53;78.07
34241;BME280;20503;50.200;19.508;2023-05-23T16:27:14;100866.90;;;20.97;77.49
34241;BME280;20503;50.200;19.508;2023-05-23T16:32:22;100874.45;;;21.06;72.51
34241;BME280;20503;50.200;19.508;2023-05-23T16:37:30;100873.92;;;21.14;73.99
34241;BME280;20503;50.200;19.508;2023-05-23T16:42:37;100864.12;;;20.97;84.57
34241;BME280;20503;50.200;19.508;2023-05-23T16:47:46;100870.72;;;20.76;87.72
34241;BME280;20503;50.200;19.508;2023-05-23T16:56:32;100869.74;;;20.46;96.13
34241;BME280;20503;50.200;19.508;2023-05-23T17:01:40;100876.83;;;20.22;98.70
34241;BME280;20503;50.200;19.508;2023-05-23T17:06:48;100874.26;;;20.10;97.15
34241;BME280;20503;50.200;19.508;2023-05-23T17:11:56;100875.18;;;20.26;94.97
34241;BME280;20503;50.200;19.508;2023-05-23T17:17:04;100887.15;;;20.26;94.84
34241;BME280;20503;50.200;19.508;2023-05-23T17:22:12;100899.73;;;20.39;94.60
34241;BME280;20503;50.200;19.508;2023-05-23T17:27:20;100898.69;;;20.50;93.34
34241;BME280;20503;50.200;19.508;2023-05-23T17:32:27;100906.49;;;20.53;93.68
34241;BME280;20503;50.200;19.508;2023-05-23T17:37:35;100902.57;;;20.44;94.91
34241;BME280;20503;50.200;19.508;2023-05-23T17:42:43;100903.09;;;20.41;95.95
34241;BME280;20503;50.200;19.508;2023-05-23T17:47:51;100908.16;;;20.07;100.00
34241;BME280;20503;50.200;19.508;2023-05-23T17:52:58;100909.47;;;20.00;100.00
34241;BME280;20503;50.200;19.508;2023-05-23T17:58:06;100919.45;;;19.96;100.00
34241;BME280;20503;50.200;19.508;2023-05-23T18:03:14;100913.35;;;19.99;99.91
34241;BME280;20503;50.200;19.508;2023-05-23T18:08:22;100911.91;;;19.91;100.00
34241;BME280;20503;50.200;19.508;2023-05-23T18:13:30;100914.02;;;19.79;100.00
34241;BME280;20503;50.200;19.508;2023-05-23T18:18:39;100917.34;;;19.45;100.00
34241;BME280;20503;50.200;19.508;2023-05-23T18:23:46;100922.62;;;19.20;100.00
34241;BME280;20503;50.200;19.508;2023-05-23T18:28:54;100930.70;;;19.48;100.00
34241;BME280;20503;50.200;19.508;2023-05-23T18:34:02;100937.43;;;19.57;100.00
34241;BME280;20503;50.200;19.508;2023-05-23T18:39:09;100955.48;;;19.54;100.00
34241;BME280;20503;50.200;19.508;2023-05-23T18:44:17;100942.74;;;19.10;100.00
34241;BME280;20503;50.200;19.508;2023-05-23T18:49:25;100953.64;;;18.74;100.00
34241;BME280;20503;50.200;19.508;2023-05-23T18:54:33;100955.47;;;18.85;100.00
34241;BME280;20503;50.200;19.508;2023-05-23T18:59:41;100956.82;;;18.83;100.00
34241;BME280;20503;50.200;19.508;2023-05-23T19:04:49;100958.63;;;18.94;100.00
34241;BME280;20503;50.200;19.508;2023-05-23T19:09:57;100968.49;;;19.06;100.00
34241;BME280;20503;50.200;19.508;2023-05-23T19:15:09;100972.12;;;18.85;100.00
34241;BME280;20503;50.200;19.508;2023-05-23T19:20:13;100971.27;;;18.85;100.00
34241;BME280;20503;50.200;19.508;2023-05-23T19:25:20;100969.87;;;18.82;100.00
34241;BME280;20503;50.200;19.508;2023-05-23T19:30:27;100978.25;;;18.87;100.00
34241;BME280;20503;50.200;19.508;2023-05-23T19:35:35;100982.58;;;18.78;100.00
34241;BME280;20503;50.200;19.508;2023-05-23T19:40:45;100979.14;;;18.71;100.00
34241;BME280;20503;50.200;19.508;2023-05-23T19:45:50;100983.02;;;18.70;100.00
34241;BME280;20503;50.200;19.508;2023-05-23T19:50:57;100987.03;;;18.79;100.00
34241;BME280;20503;50.200;19.508;2023-05-23T19:56:05;100986.37;;;18.72;100.00
34241;BME280;20503;50.200;19.508;2023-05-23T20:01:13;100995.61;;;18.40;100.00
34241;BME280;20503;50.200;19.508;2023-05-23T20:06:21;100990.71;;;18.14;100.00
34241;BME280;20503;50.200;19.508;2023-05-23T20:11:29;100986.09;;;18.03;100.00
34241;BME280;20503;50.200;19.508;2023-05-23T20:16:36;101005.82;;;18.06;100.00
34241;BME280;20503;50.200;19.508;2023-05-23T20:21:44;100999.63;;;17.99;100.00
34241;BME280;20503;50.200;19.508;2023-05-23T20:26:52;101016.23;;;18.16;100.00
34241;BME280;20503;50.200;19.508;2023-05-23T20:32:00;101005.49;;;18.19;100.00
34241;BME280;20503;50.200;19.508;2023-05-23T20:37:07;101003.56;;;18.03;100.00
34241;BME280;20503;50.200;19.508;2023-05-23T20:42:15;101016.93;;;18.23;100.00
34241;BME280;20503;50.200;19.508;2023-05-23T20:47:23;101023.50;;;18.33;100.00
34241;BME280;20503;50.200;19.508;2023-05-23T20:52:30;101036.34;;;18.23;100.00
34241;BME280;20503;50.200;19.508;2023-05-23T20:57:38;101027.01;;;18.12;100.00
34241;BME280;20503;50.200;19.508;2023-05-23T21:02:46;101028.76;;;18.18;100.00
34241;BME280;20503;50.200;19.508;2023-05-23T21:07:55;101026.50;;;18.15;100.00
34241;BME280;20503;50.200;19.508;2023-05-23T21:13:03;101020.80;;;18.22;100.00
34241;BME280;20503;50.200;19.508;2023-05-23T21:18:11;101029.86;;;18.17;100.00
34241;BME280;20503;50.200;19.508;2023-05-23T21:23:18;101037.59;;;18.15;100.00
34241;BME280;20503;50.200;19.508;2023-05-23T21:28:26;101043.38;;;18.14;100.00
34241;BME280;20503;50.200;19.508;2023-05-23T21:33:33;101043.63;;;18.12;100.00
34241;BME280;20503;50.200;19.508;2023-05-23T21:38:41;101045.13;;;18.03;100.00
34241;BME280;20503;50.200;19.508;2023-05-23T21:43:49;101046.30;;;18.07;100.00
34241;BME280;20503;50.200;19.508;2023-05-23T21:48:56;101050.16;;;18.06;100.00
34241;BME280;20503;50.200;19.508;2023-05-23T21:54:04;101050.01;;;17.96;100.00
34241;BME280;20503;50.200;19.508;2023-05-23T21:59:11;101050.16;;;17.90;100.00
34241;BME280;20503;50.200;19.508;2023-05-23T22:04:19;101049.65;;;17.93;100.00
34241;BME280;20503;50.200;19.508;2023-05-23T22:09:27;101056.95;;;17.82;100.00
34241;BME280;20503;50.200;19.508;2023-05-23T22:14:35;101059.01;;;17.75;100.00
34241;BME280;20503;50.200;19.508;2023-05-23T22:19:43;101057.83;;;17.71;100.00
34241;BME280;20503;50.200;19.508;2023-05-23T22:24:50;101062.63;;;17.76;100.00
34241;BME280;20503;50.200;19.508;2023-05-23T22:29:58;101052.20;;;17.66;100.00
34241;BME280;20503;50.200;19.508;2023-05-23T22:35:07;101064.54;;;17.75;100.00
34241;BME280;20503;50.200;19.508;2023-05-23T22:40:17;101061.55;;;17.77;100.00
34241;BME280;20503;50.200;19.508;2023-05-23T22:45:23;101054.05;;;17.77;100.00
34241;BME280;20503;50.200;19.508;2023-05-23T22:50:30;101059.60;;;17.77;100.00
34241;BME280;20503;50.200;19.508;2023-05-23T22:55:38;101055.30;;;17.70;100.00
34241;BME280;20503;50.200;19.508;2023-05-23T23:00:46;101058.06;;;17.70;100.00
34241;BME280;20503;50.200;19.508;2023-05-23T23:05:54;101049.00;;;17.58;100.00
34241;BME280;20503;50.200;19.508;2023-05-23T23:11:02;101052.29;;;17.71;100.00
34241;BME280;20503;50.200;19.508;2023-05-23T23:16:09;101044.99;;;17.65;100.00
34241;BME280;20503;50.200;19.508;2023-05-23T23:21:17;101040.78;;;17.63;100.00
34241;BME280;20503;50.200;19.508;2023-05-23T23:26:25;101039.69;;;17.64;100.00
34241;BME280;20503;50.200;19.508;2023-05-23T23:31:33;101038.37;;;17.66;100.00
34241;BME280;20503;50.200;19.508;2023-05-23T23:36:41;101043.04;;;17.66;100.00
34241;BME280;20503;50.200;19.508;2023-05-23T23:41:49;101035.00;;;17.64;100.00
34241;BME280;20503;50.200;19.508;2023-05-23T23:46:57;101036.56;;;17.60;100.00
34241;BME280;20503;50.200;19.508;2023-05-23T23:52:04;101035.73;;;17.60;100.00
34241;BME280;20503;50.200;19.508;2023-05-23T23:57:12;101034.44;;;17.51;100.00
